sensor_id;sensor_type;location;lat;lon;timestamp;P1;P2;P0
56360;PMS7003;42611;51.132;13.588;2022-08-24T00:00:04;20.7;20.4;
56360;PMS7003;42611;51.132;13.588;2022-08-24T00:05:01;19.7;19.4;
56360;PMS7003;42611;51.132;13.588;2022-08-24T13:54:30;16.8;15.9;
56360;PMS7003;42611;51.132;13.588;2022-08-24T14:00:38;16.2;15.3;
56360;PMS7003;42611;51.132;13.588;2022-08-24T14:12:15;16.5;15.4;
56360;PMS7003;42611;51.132;13.588;2022-08-24T14:18:13;16.7;15.3;
56360;PMS7003;42611;51.132;13.588;2022-08-24T14:23:19;16.8;15.2;
56360;PMS7003;42611;51.132;13.588;2022-08-24T14:29:24;17.4;15.8;
56360;PMS7003;42611;51.132;13.588;2022-08-24T14:35:57;18.0;16.1;
56360;PMS7003;42611;51.132;13.588;2022-08-24T14:46:14;18.4;17.5;
56360;PMS7003;42611;51.132;13.588;2022-08-24T14:51:19;18.8;18.2;
56360;PMS7003;42611;51.132;13.588;2022-08-24T15:03:17;19.4;19.1;
56360;PMS7003;42611;51.132;13.588;2022-08-24T15:07:23;20.3;19.6;
56360;PMS7003;42611;51.132;13.588;2022-08-24T15:13:12;20.6;19.6;
56360;PMS7003;42611;51.132;13.588;2022-08-24T15:19:12;21.4;20.2;
56360;PMS7003;42611;51.132;13.588;2022-08-24T15:23:15;20.6;19.4;
56360;PMS7003;42611;51.132;13.588;2022-08-24T15:28:09;21.5;20.6;
56360;PMS7003;42611;51.132;13.588;2022-08-24T15:34:03;21.7;21.0;
56360;PMS7003;42611;51.132;13.588;2022-08-24T15:39:03;23.2;22.1;
56360;PMS7003;42611;51.132;13.588;2022-08-24T15:44:05;23.3;22.4;
56360;PMS7003;42611;51.132;13.588;2022-08-24T15:49:05;23.1;22.2;
56360;PMS7003;42611;51.132;13.588;2022-08-24T15:54:12;23.9;23.0;
56360;PMS7003;42611;51.132;13.588;2022-08-24T15:59:07;24.2;22.6;
56360;PMS7003;42611;51.132;13.588;2022-08-24T16:05:35;22.4;21.1;
56360;PMS7003;42611;51.132;13.588;2022-08-24T16:10:05;22.8;21.5;
56360;PMS7003;42611;51.132;13.588;2022-08-24T16:15:18;23.7;22.4;
56360;PMS7003;42611;51.132;13.588;2022-08-24T16:20:04;24.1;22.6;
56360;PMS7003;42611;51.132;13.588;2022-08-24T16:30:22;25.7;24.6;
56360;PMS7003;42611;51.132;13.588;2022-08-24T16:40:03;26.7;25.0;
56360;PMS7003;42611;51.132;13.588;2022-08-24T16:45:04;27.6;25.6;
56360;PMS7003;42611;51.132;13.588;2022-08-24T16:50:03;28.6;26.2;
56360;PMS7003;42611;51.132;13.588;2022-08-24T16:55:02;28.3;26.4;
56360;PMS7003;42611;51.132;13.588;2022-08-24T17:01:02;29.6;27.2;
56360;PMS7003;42611;51.132;13.588;2022-08-24T17:06:01;29.1;27.1;
56360;PMS7003;42611;51.132;13.588;2022-08-24T17:11:01;29.5;27.1;
56360;PMS7003;42611;51.132;13.588;2022-08-24T17:16:01;29.7;27.0;
56360;PMS7003;42611;51.132;13.588;2022-08-24T17:21:01;30.3;27.5;
56360;PMS7003;42611;51.132;13.588;2022-08-24T17:26:02;28.4;26.4;
56360;PMS7003;42611;51.132;13.588;2022-08-24T17:31:01;28.0;25.5;
56360;PMS7003;42611;51.132;13.588;2022-08-24T17:36:02;26.6;25.0;
56360;PMS7003;42611;51.132;13.588;2022-08-24T17:41:01;26.0;25.1;
56360;PMS7003;42611;51.132;13.588;2022-08-24T17:46:03;26.1;25.5;
56360;PMS7003;42611;51.132;13.588;2022-08-24T17:51:02;27.7;26.5;
56360;PMS7003;42611;51.132;13.588;2022-08-24T17:56:03;29.7;28.2;
56360;PMS7003;42611;51.132;13.588;2022-08-24T18:01:03;29.8;28.1;
56360;PMS7003;42611;51.132;13.588;2022-08-24T18:11:01;29.4;27.2;
56360;PMS7003;42611;51.132;13.588;2022-08-24T18:16:02;29.8;27.2;
56360;PMS7003;42611;51.132;13.588;2022-08-24T18:21:01;28.2;26.1;
56360;PMS7003;42611;51.132;13.588;2022-08-24T18:26:01;27.6;25.2;
56360;PMS7003;42611;51.132;13.588;2022-08-24T18:31:02;27.0;24.6;
56360;PMS7003;42611;51.132;13.588;2022-08-24T18:36:02;26.6;24.8;
56360;PMS7003;42611;51.132;13.588;2022-08-24T18:45:01;31.6;29.2;
56360;PMS7003;42611;51.132;13.588;2022-08-24T18:50:01;30.0;28.3;
56360;PMS7003;42611;51.132;13.588;2022-08-24T18:55:01;31.1;28.9;
56360;PMS7003;42611;51.132;13.588;2022-08-24T19:00:03;35.0;31.2;
56360;PMS7003;42611;51.132;13.588;2022-08-24T19:05:12;35.8;31.4;
56360;PMS7003;42611;51.132;13.588;2022-08-24T19:10:01;37.7;32.2;
56360;PMS7003;42611;51.132;13.588;2022-08-24T19:15:01;38.4;32.4;
56360;PMS7003;42611;51.132;13.588;2022-08-24T19:20:01;37.5;32.1;
56360;PMS7003;42611;51.132;13.588;2022-08-24T19:25:01;33.8;29.6;
56360;PMS7003;42611;51.132;13.588;2022-08-24T19:30:02;31.7;28.6;
56360;PMS7003;42611;51.132;13.588;2022-08-24T19:35:01;28.8;27.0;
56360;PMS7003;42611;51.132;13.588;2022-08-24T19:40:02;28.4;27.2;
56360;PMS7003;42611;51.132;13.588;2022-08-24T19:45:02;28.5;26.7;
56360;PMS7003;42611;51.132;13.588;2022-08-24T19:50:04;29.3;27.3;
56360;PMS7003;42611;51.132;13.588;2022-08-24T19:55:01;29.6;27.3;
56360;PMS7003;42611;51.132;13.588;2022-08-24T20:00:26;29.9;27.3;
56360;PMS7003;42611;51.132;13.588;2022-08-24T20:05:02;28.8;26.4;
56360;PMS7003;42611;51.132;13.588;2022-08-24T20:10:14;28.7;26.9;
56360;PMS7003;42611;51.132;13.588;2022-08-24T20:15:03;28.8;26.8;
56360;PMS7003;42611;51.132;13.588;2022-08-24T20:20:02;28.0;26.3;
56360;PMS7003;42611;51.132;13.588;2022-08-24T20:25:01;28.2;26.4;
56360;PMS7003;42611;51.132;13.588;2022-08-24T20:30:02;29.2;26.9;
56360;PMS7003;42611;51.132;13.588;2022-08-24T20:35:01;29.4;26.7;
56360;PMS7003;42611;51.132;13.588;2022-08-24T20:40:02;28.9;26.8;
56360;PMS7003;42611;51.132;13.588;2022-08-24T20:45:01;29.2;27.4;
56360;PMS7003;42611;51.132;13.588;2022-08-24T20:50:01;29.0;27.2;
56360;PMS7003;42611;51.132;13.588;2022-08-24T20:55:01;28.3;26.8;
56360;PMS7003;42611;51.132;13.588;2022-08-24T21:00:03;28.0;26.5;
56360;PMS7003;42611;51.132;13.588;2022-08-24T21:05:01;27.8;25.9;
56360;PMS7003;42611;51.132;13.588;2022-08-24T21:10:01;27.9;25.6;
56360;PMS7003;42611;51.132;13.588;2022-08-24T21:15:02;27.9;26.0;
56360;PMS7003;42611;51.132;13.588;2022-08-24T21:20:01;28.4;26.8;
56360;PMS7003;42611;51.132;13.588;2022-08-24T21:25:03;29.7;27.9;
56360;PMS7003;42611;51.132;13.588;2022-08-24T21:30:02;29.4;28.3;
56360;PMS7003;42611;51.132;13.588;2022-08-24T21:35:01;29.5;28.6;
56360;PMS7003;42611;51.132;13.588;2022-08-24T21:40:02;29.4;28.5;
56360;PMS7003;42611;51.132;13.588;2022-08-24T21:45:01;29.0;28.1;
56360;PMS7003;42611;51.132;13.588;2022-08-24T21:50:01;28.4;27.5;
56360;PMS7003;42611;51.132;13.588;2022-08-24T21:55:02;28.3;27.3;
56360;PMS7003;42611;51.132;13.588;2022-08-24T22:00:07;27.3;26.4;
56360;PMS7003;42611;51.132;13.588;2022-08-24T22:05:01;28.0;26.5;
56360;PMS7003;42611;51.132;13.588;2022-08-24T22:10:01;28.4;26.7;
56360;PMS7003;42611;51.132;13.588;2022-08-24T22:15:02;28.4;26.8;
56360;PMS7003;42611;51.132;13.588;2022-08-24T22:20:04;29.9;27.8;
56360;PMS7003;42611;51.132;13.588;2022-08-24T22:25:01;30.4;28.4;
56360;PMS7003;42611;51.132;13.588;2022-08-24T22:30:02;31.0;28.8;
56360;PMS7003;42611;51.132;13.588;2022-08-24T22:35:01;31.6;29.1;
56360;PMS7003;42611;51.132;13.588;2022-08-24T22:40:03;32.3;29.8;
56360;PMS7003;42611;51.132;13.588;2022-08-24T22:45:02;30.6;28.5;
56360;PMS7003;42611;51.132;13.588;2022-08-24T22:55:01;29.4;28.1;
56360;PMS7003;42611;51.132;13.588;2022-08-24T23:00:04;29.8;28.4;
56360;PMS7003;42611;51.132;13.588;2022-08-24T23:05:01;28.4;27.3;
56360;PMS7003;42611;51.132;13.588;2022-08-24T23:10:02;29.2;28.0;
56360;PMS7003;42611;51.132;13.588;2022-08-24T23:15:02;29.5;28.2;
56360;PMS7003;42611;51.132;13.588;2022-08-24T23:20:02;30.2;28.5;
56360;PMS7003;42611;51.132;13.588;2022-08-24T23:25:02;28.6;27.5;
56360;PMS7003;42611;51.132;13.588;2022-08-24T23:30:02;29.2;27.7;
56360;PMS7003;42611;51.132;13.588;2022-08-24T23:35:02;29.1;27.3;
56360;PMS7003;42611;51.132;13.588;2022-08-24T23:40:02;29.3;27.4;
56360;PMS7003;42611;51.132;13.588;2022-08-24T23:45:06;27.6;26.2;
56360;PMS7003;42611;51.132;13.588;2022-08-24T23:50:01;29.3;27.2;
56360;PMS7003;42611;51.132;13.588;2022-08-24T23:55:16;30.2;27.8;
